RPi & Temperatures at JO21ut

Last graph updates: Wednesday 13 November 2019 23:02 CET

Sunrise: 07:51 & Sunset: 16:51 The Sun is currently not visible. [-55.60 degrees] and 148010053 Km from the Earth
Moonrise: 17:41 & Moonset: 8:29 Full Moon The Moon is 388615 Km from the Earth
Find here more details on MARS.

23:47:11 up 22:52, 0 users, load average: 0.86, 0.94, 0.88
Current CPU frequency is: 1000 Mhz
Current GPU temperature: 27.172°C
Current inside temperature is 16.4°C with a humidity of 71.8%
Second inside temperature is 16.3°C with a pressure of 996.42 Hpa (29.2 inHg) and an uncorrected altitude of 141.66 m
ds18b20 now showing 16.1°C

All the sensors I use, DHT22 | BMP085 | MPU6050 | BH1750FVI | MMA7455 | HMC5883L | MPL3115A2 | DS1307 | HTU21 | AM2321 | DS3231 | INA219 | LM75A , and it's current readout can be viewed here please be patient as it needs to read all sensors data. The page loads after about 10 seconds. In our forum more details can be found such as the used software/sources. Feel free to add yours also..


Pressure BMP085
Pressure BMP085
Pressure BMP085
Pressure BMP085
PI CPU Temp
Inet Volkel temp
Inside temp BMP085
Humidity BMP085
PI CPU Temp
Inet Volkel temp
Inside temp BMP085
Humidity BMP085
PI CPU Temp
Inet Volkel temp
Inside temp BMP085
Humidity BMP085
PI CPU Temp
Inet Volkel temp
Inside temp BMP085
Humidity BMP085
PI CPU Temp
Inet Volkel temp
Inside temp BMP085
Humidity BMP085
Inside light BH1750FV
Inside light BH1750FV
Inside light BH1750FV
Inside light BH1750FV
Inside light BH1750FV
Inside light BH1750FV
Sunlight hours
 

Sun & Moon position graph
Created with jpgraph 4.2.8


Wijchen weather

Weer Widget
ScreenSaver yr.no

Sun Moon Earth


EHEH 132225Z AUTO 14004KT 9999 SCT086 OVC100 04/04 Q0999 BLU 18008KT 9999 SCT030 BKN050 EHEH 132225Z AUTO 14004KT 9999 SCT086 OVC100 04/04 Q0999 BLU 18008KT 9999 SCT030 BKN050 EHEH 132225Z AUTO 14004KT 9999 SCT086 OVC100 04/04 Q0999 BLU 18008KT 9999 SCT030 BKN050

Weather data from Volkel [NL] EHVK


22 minutes ago, at 22:25 UTC, the wind was calm in Volkel [EHVK], Netherlands. The temperature was 4 °C (39 °F) with a dewpoint of 4 °C (39 °F), and the pressure was 999 hPa (29.50 inHg). The relative humidity was 100.0%. There were scattered clouds at a height of 2621 meter (8600 feet), overcast at a height of 3048 meter (10000 feet) and scattered clouds at a height of 914 meter (3000 feet). The visibility was >10 kilometers (>6.2 miles).




View code:

Contact me  |  My Raspberry PI forum